Time;durP1;ratioP1;P1;durP2;ratioP2;P2;SDS_P1;SDS_P2;PMS_P1;PMS_P2;Temp;Humidity;BMP_temperature;BMP_pressure;BME280_temperature;BME280_humidity;BME280_pressure;Samples;Min_cycle;Max_cycle;Signal;HPM_P1;HPM_P2
2023/10/30 00:01:48;;;;;;;10.95;4.75;;;;;;;10.12;100.00;92268.84;6258264;22;20003;-81
2023/10/30 00:04:14;;;;;;;7.55;4.32;;;;;;;10.14;100.00;92263.34;6311633;22;20017;-83
2023/10/30 00:06:40;;;;;;;8.15;4.30;;;;;;;10.15;100.00;92257.78;6310937;22;20433;-82
2023/10/30 00:09:06;;;;;;;9.55;4.20;;;;;;;10.16;100.00;92263.81;6310168;22;20038;-83
2023/10/30 00:11:32;;;;;;;11.50;4.07;;;;;;;10.16;100.00;92261.22;6310337;22;20360;-83
2023/10/30 00:13:57;;;;;;;7.10;3.95;;;;;;;10.16;100.00;92255.97;6282970;22;20019;-84
2023/10/30 00:16:23;;;;;;;10.80;3.95;;;;;;;10.14;100.00;92261.50;6310345;22;20022;-84
2023/10/30 00:18:49;;;;;;;13.52;4.65;;;;;;;10.14;100.00;92255.50;6283868;22;20016;-83
2023/10/30 00:21:15;;;;;;;9.68;4.30;;;;;;;10.16;100.00;92263.81;6311792;22;20011;-82
2023/10/30 00:23:41;;;;;;;7.85;4.03;;;;;;;10.16;100.00;92264.59;6311368;22;20007;-83
2023/10/30 00:26:07;;;;;;;9.93;5.70;;;;;;;10.16;100.00;92250.75;6311413;22;20068;-83
2023/10/30 00:28:36;;;;;;;10.77;4.90;;;;;;;10.16;100.00;92240.28;6313189;22;20011;-83
2023/10/30 00:31:02;;;;;;;8.52;4.60;;;;;;;10.12;100.00;92240.06;6324613;22;19998;-84
2023/10/30 00:33:28;;;;;;;9.52;4.25;;;;;;;10.24;100.00;92259.75;6296957;22;20015;-83
2023/10/30 00:35:54;;;;;;;10.73;4.47;;;;;;;10.27;100.00;92257.34;6324105;22;20050;-83
2023/10/30 00:38:19;;;;;;;173.00;8.75;;;;;;;10.37;100.00;92265.03;6296038;22;20052;-84
2023/10/30 00:40:45;;;;;;;10.25;5.28;;;;;;;10.28;100.00;92261.50;6313310;22;20012;-83
2023/10/30 00:43:11;;;;;;;288.60;11.18;;;;;;;10.26;100.00;92270.72;6235343;22;20090;-83
2023/10/30 00:45:37;;;;;;;741.15;22.05;;;;;;;10.24;100.00;92271.00;6285882;22;20060;-84
2023/10/30 00:48:03;;;;;;;145.13;9.60;;;;;;;10.20;100.00;92265.56;6313096;22;20345;-84
2023/10/30 00:50:32;;;;;;;1217.40;35.22;;;;;;;10.13;100.00;92246.88;6284730;22;20098;-84
2023/10/30 00:52:58;;;;;;;358.13;14.07;;;;;;;10.14;100.00;92260.72;6284838;22;20495;-84
2023/10/30 00:55:24;;;;;;;34.47;7.25;;;;;;;10.12;100.00;92268.84;6258443;22;20015;-84
2023/10/30 00:57:49;;;;;;;11.18;6.55;;;;;;;10.13;100.00;92270.41;6311162;22;20019;-84
2023/10/30 01:00:16;;;;;;;12.70;6.53;;;;;;;10.14;100.00;92271.94;6310886;22;20088;-83
2023/10/30 01:02:41;;;;;;;12.02;7.80;;;;;;;10.16;100.00;92269.81;6283316;22;20448;-83
2023/10/30 01:05:08;;;;;;;8.10;5.88;;;;;;;10.17;100.00;92255.66;6311011;22;20025;-84
2023/10/30 01:07:34;;;;;;;10.02;5.70;;;;;;;10.22;100.00;92241.72;6283333;22;20041;-83
2023/10/30 01:10:00;;;;;;;11.48;5.85;;;;;;;10.20;100.00;92255.13;6310394;22;20481;-84
2023/10/30 01:12:25;;;;;;;11.73;5.65;;;;;;;10.23;100.00;92259.00;6310832;22;20112;-84
2023/10/30 01:14:51;;;;;;;8.52;5.47;;;;;;;10.19;100.00;92252.78;6282974;22;20023;-84
2023/10/30 01:17:16;;;;;;;9.63;5.53;;;;;;;10.21;100.00;92248.03;6257474;22;20114;-84
2023/10/30 01:19:43;;;;;;;10.93;6.63;;;;;;;10.25;100.00;92245.63;6310528;22;20019;-84
2023/10/30 01:22:08;;;;;;;14.15;6.65;;;;;;;10.26;100.00;92247.16;6283679;22;20014;-84
2023/10/30 01:24:34;;;;;;;15.65;7.15;;;;;;;10.27;100.00;92251.31;6283158;22;20392;-83
2023/10/30 01:27:00;;;;;;;14.10;7.63;;;;;;;10.23;100.00;92251.13;6312088;22;20003;-84
2023/10/30 01:29:25;;;;;;;19.90;7.50;;;;;;;10.29;100.00;92262.31;6258616;22;20026;-83
2023/10/30 01:31:51;;;;;;;12.10;6.32;;;;;;;10.30;100.00;92248.19;6311157;22;20031;-83
2023/10/30 01:34:17;;;;;;;11.38;6.75;;;;;;;10.28;100.00;92230.13;6309967;22;20026;-83
2023/10/30 01:36:42;;;;;;;12.00;6.50;;;;;;;10.27;100.00;92233.00;6310599;22;20015;-83
2023/10/30 01:39:08;;;;;;;9.73;6.45;;;;;;;10.27;100.00;92228.56;6310278;22;20153;-83
2023/10/30 01:41:33;;;;;;;10.02;5.82;;;;;;;10.29;100.00;92221.25;6310194;22;20023;-83
2023/10/30 01:43:59;;;;;;;9.65;5.68;;;;;;;10.30;100.00;92233.25;6281512;22;20019;-83
2023/10/30 01:46:24;;;;;;;10.05;5.57;;;;;;;10.30;100.00;92216.78;6310339;22;20018;-83
2023/10/30 01:48:51;;;;;;;10.80;5.95;;;;;;;10.31;100.00;92215.69;6311139;22;20022;-82
2023/10/30 01:51:17;;;;;;;9.77;6.38;;;;;;;10.34;100.00;92215.91;6283663;22;20132;-83
2023/10/30 01:53:43;;;;;;;10.27;5.82;;;;;;;10.38;100.00;92218.69;6256865;22;20019;-83
2023/10/30 01:56:10;;;;;;;954.00;28.42;;;;;;;10.41;100.00;92212.91;6309510;22;20014;-82
2023/10/30 01:58:36;;;;;;;1152.88;31.45;;;;;;;10.35;100.00;92209.59;6282418;22;20352;-83
2023/10/30 02:01:03;;;;;;;1632.55;45.10;;;;;;;10.23;100.00;92206.66;6282360;22;20019;-83
2023/10/30 02:03:28;;;;;;;614.22;21.27;;;;;;;10.19;100.00;92198.63;6282900;22;20011;-82
2023/10/30 02:05:54;;;;;;;731.35;21.88;;;;;;;10.17;100.00;92198.13;6282251;22;20030;-83
2023/10/30 02:08:21;;;;;;;770.95;24.00;;;;;;;10.17;100.00;92187.66;6282965;22;20015;-83
2023/10/30 02:10:47;;;;;;;586.45;20.33;;;;;;;10.09;100.00;92174.50;6256341;22;20011;-83
2023/10/30 02:13:13;;;;;;;748.58;21.52;;;;;;;10.11;100.00;92191.47;6256732;22;20022;-83
2023/10/30 02:15:39;;;;;;;325.73;13.45;;;;;;;10.02;100.00;92182.75;6281386;22;20019;-82
2023/10/30 02:18:05;;;;;;;425.52;15.10;;;;;;;10.04;100.00;92182.44;6309288;22;20007;-82
2023/10/30 02:20:31;;;;;;;191.27;11.68;;;;;;;10.07;100.00;92187.09;6281337;22;20026;-83
2023/10/30 02:22:57;;;;;;;285.88;13.57;;;;;;;10.07;100.00;92182.63;6230287;22;20035;-82
2023/10/30 02:25:25;;;;;;;19.75;9.13;;;;;;;10.10;100.00;92176.03;6281031;22;20335;-83
2023/10/30 02:27:53;;;;;;;84.97;9.48;;;;;;;10.11;100.00;92174.97;6309090;22;20019;-83
2023/10/30 02:30:20;;;;;;;51.63;9.98;;;;;;;10.13;100.00;92176.25;6309283;22;19995;-83
2023/10/30 02:32:47;;;;;;;16.95;9.52;;;;;;;10.12;100.00;92164.22;6282417;22;20345;-83
2023/10/30 02:35:19;;;;;;;316.05;13.90;;;;;;;10.14;100.00;92177.03;6282246;22;20548;-83
2023/10/30 02:37:46;;;;;;;39.38;8.98;;;;;;;10.13;100.00;92176.25;6281165;22;20019;-83
2023/10/30 02:40:13;;;;;;;113.15;8.93;;;;;;;10.21;100.00;92186.03;6308955;22;20401;-84
2023/10/30 02:42:40;;;;;;;168.40;10.65;;;;;;;10.21;100.00;92188.63;6231495;22;20011;-83
2023/10/30 02:45:06;;;;;;;12.77;8.32;;;;;;;10.14;100.00;92175.19;6309481;22;20327;-84
2023/10/30 02:47:33;;;;;;;13.18;7.60;;;;;;;10.16;100.00;92165.19;6281503;22;20007;-83
2023/10/30 02:49:59;;;;;;;12.73;8.18;;;;;;;10.14;100.00;92167.34;6281794;22;20042;-83
2023/10/30 02:52:24;;;;;;;13.10;7.38;;;;;;;10.19;100.00;92175.06;6281850;22;20453;-83
2023/10/30 02:54:50;;;;;;;13.55;7.70;;;;;;;10.18;100.00;92163.06;6255918;22;20015;-82
2023/10/30 02:57:16;;;;;;;10.82;6.78;;;;;;;10.20;100.00;92155.72;6280153;22;20008;-83
2023/10/30 02:59:42;;;;;;;12.00;6.68;;;;;;;10.26;100.00;92158.22;6309204;22;20416;-83
2023/10/30 03:02:09;;;;;;;13.40;6.70;;;;;;;10.19;100.00;92151.53;6280982;22;20415;-83
2023/10/30 03:04:35;;;;;;;10.50;6.57;;;;;;;10.21;100.00;92154.63;6309044;22;20003;-83
2023/10/30 03:07:01;;;;;;;8.90;6.05;;;;;;;10.19;100.00;92153.38;6256182;22;20018;-83
2023/10/30 03:09:30;;;;;;;12.20;5.82;;;;;;;10.24;100.00;92155.88;6280853;22;20007;-84
2023/10/30 03:11:56;;;;;;;9.20;5.63;;;;;;;10.24;100.00;92155.13;6307623;22;20031;-83
2023/10/30 03:14:21;;;;;;;13.60;5.80;;;;;;;10.24;100.00;92153.28;6281623;22;20015;-83
2023/10/30 03:16:47;;;;;;;10.85;5.13;;;;;;;10.22;100.00;92152.78;6256270;22;20102;-83
2023/10/30 03:19:13;;;;;;;10.35;5.50;;;;;;;10.24;100.00;92161.13;6281233;22;20030;-82
2023/10/30 03:21:39;;;;;;;7.70;5.28;;;;;;;10.21;100.00;92154.63;6231260;22;20019;-83
2023/10/30 03:24:06;;;;;;;14.52;5.38;;;;;;;10.26;100.00;92163.47;6281156;22;20452;-83
2023/10/30 03:26:31;;;;;;;16.17;5.55;;;;;;;10.26;100.00;92160.84;6308607;22;20003;-84
2023/10/30 03:28:57;;;;;;;11.70;5.40;;;;;;;10.26;100.00;92158.22;6254515;22;20098;-83
2023/10/30 03:31:23;;;;;;;12.18;5.10;;;;;;;10.29;100.00;92148.00;6307894;22;20012;-83
2023/10/30 03:33:48;;;;;;;15.32;6.60;;;;;;;10.20;100.00;92134.78;6280792;22;20518;-83
2023/10/30 03:36:25;;;;;;;10.73;6.32;;;;;;;10.26;100.00;92147.75;6308680;22;19999;-82
2023/10/30 03:38:51;;;;;;;11.52;6.60;;;;;;;10.24;100.00;92147.28;6255558;22;20108;-83
2023/10/30 03:41:18;;;;;;;13.68;6.78;;;;;;;10.22;100.00;92147.56;6308559;22;20003;-82
2023/10/30 03:43:46;;;;;;;13.45;6.70;;;;;;;10.23;100.00;92148.34;6256593;22;20003;-83
2023/10/30 03:46:12;;;;;;;9.20;6.32;;;;;;;10.23;100.00;92153.59;6308453;22;20078;-83
2023/10/30 03:48:39;;;;;;;208.90;11.32;;;;;;;10.29;100.00;92149.81;6307682;22;20011;-83
2023/10/30 03:51:05;;;;;;;186.05;12.15;;;;;;;10.25;100.00;92146.22;6307980;22;20056;-83
2023/10/30 03:53:31;;;;;;;13.20;7.97;;;;;;;10.20;100.00;92153.09;6281193;22;20016;-84
2023/10/30 03:55:58;;;;;;;179.05;11.88;;;;;;;10.18;100.00;92151.84;6281276;22;20019;-83
2023/10/30 03:58:25;;;;;;;68.65;10.30;;;;;;;10.15;100.00;92158.41;6308625;22;20314;-84
2023/10/30 04:00:51;;;;;;;35.92;10.00;;;;;;;10.14;100.00;92156.09;6308644;22;20341;-84
2023/10/30 04:03:17;;;;;;;16.45;9.38;;;;;;;10.11;100.00;92152.22;6281013;22;20010;-83
2023/10/30 04:05:43;;;;;;;19.27;7.78;;;;;;;10.13;100.00;92165.78;6231102;22;20011;-83
2023/10/30 04:08:09;;;;;;;26.52;8.45;;;;;;;10.17;100.00;92169.34;6256409;22;20003;-83
2023/10/30 04:10:34;;;;;;;12.25;7.25;;;;;;;10.12;100.00;92160.84;6308236;22;20402;-83
2023/10/30 04:13:00;;;;;;;11.30;7.35;;;;;;;10.18;100.00;92160.47;6255037;22;20016;-83
2023/10/30 04:15:26;;;;;;;12.65;7.85;;;;;;;10.23;100.00;92175.28;6308399;22;20016;-83
2023/10/30 04:17:54;;;;;;;142.23;10.68;;;;;;;10.26;100.00;92173.91;6255259;22;20003;-83
2023/10/30 04:20:20;;;;;;;13.30;8.32;;;;;;;10.24;100.00;92168.97;6283312;22;20057;-83
2023/10/30 04:22:49;;;;;;;13.05;8.38;;;;;;;10.24;100.00;92162.97;6308410;22;20011;-83
2023/10/30 04:25:15;;;;;;;16.23;8.00;;;;;;;10.23;100.00;92159.59;6308436;22;19999;-83
2023/10/30 04:27:40;;;;;;;10.68;7.07;;;;;;;10.25;100.00;92154.06;6308587;22;20086;-83
2023/10/30 04:30:07;;;;;;;11.60;6.68;;;;;;;10.25;100.00;92157.47;6280977;22;20099;-83
2023/10/30 04:32:32;;;;;;;10.73;6.93;;;;;;;10.25;100.00;92154.06;6281330;22;20101;-83
2023/10/30 04:34:58;;;;;;;11.63;6.72;;;;;;;10.28;100.00;92167.31;6307386;22;20020;-82
2023/10/30 04:37:24;;;;;;;12.07;5.88;;;;;;;10.35;100.00;92170.34;6281677;22;20019;-83
2023/10/30 04:39:49;;;;;;;9.30;6.35;;;;;;;10.31;100.00;92166.00;6308331;22;20029;-82
2023/10/30 04:42:15;;;;;;;42.42;7.13;;;;;;;10.30;100.00;92165.22;6307696;22;20034;-83
2023/10/30 04:44:40;;;;;;;10.10;7.43;;;;;;;10.30;100.00;92167.06;6283510;22;20049;-83
2023/10/30 04:47:07;;;;;;;20.98;8.55;;;;;;;10.27;100.00;92175.47;6283739;22;19999;-84
2023/10/30 04:49:35;;;;;;;13.98;8.43;;;;;;;10.26;100.00;92169.47;6310693;22;20019;-83
2023/10/30 04:52:02;;;;;;;11.77;7.28;;;;;;;10.28;100.00;92163.94;6283739;22;20011;-83
2023/10/30 04:54:28;;;;;;;13.45;6.72;;;;;;;10.28;100.00;92169.94;6281979;22;20010;-83
2023/10/30 04:56:54;;;;;;;14.88;6.35;;;;;;;10.28;100.00;92177.03;6309626;22;20094;-84
2023/10/30 04:59:19;;;;;;;9.32;6.30;;;;;;;10.29;100.00;92178.59;6282989;22;20015;-84
2023/10/30 05:01:45;;;;;;;10.10;5.70;;;;;;;10.31;100.00;92166.00;6310597;22;20014;-83
2023/10/30 05:04:11;;;;;;;10.30;6.35;;;;;;;10.29;100.00;92155.03;6310422;22;20011;-83
2023/10/30 05:06:36;;;;;;;9.52;6.65;;;;;;;10.28;100.00;92146.41;6310477;22;20090;-84
2023/10/30 05:09:03;;;;;;;9.02;5.78;;;;;;;10.34;100.00;92154.97;6282069;22;20003;-83
2023/10/30 05:11:29;;;;;;;10.77;5.82;;;;;;;10.29;100.00;92147.19;6282319;22;20492;-83
2023/10/30 05:13:54;;;;;;;13.25;6.20;;;;;;;10.33;100.00;92154.16;6256770;22;20022;-83
2023/10/30 05:16:21;;;;;;;6.68;4.75;;;;;;;10.32;100.00;92157.88;6280428;22;20104;-82
2023/10/30 05:18:46;;;;;;;9.75;5.03;;;;;;;10.35;100.00;92162.50;6258126;22;20011;-82
2023/10/30 05:21:12;;;;;;;8.60;4.65;;;;;;;10.35;100.00;92146.03;6310236;22;20049;-77
2023/10/30 05:23:38;;;;;;;13.02;4.90;;;;;;;10.29;100.00;92128.88;6313413;22;20010;-79
2023/10/30 05:26:03;;;;;;;7.80;4.15;;;;;;;10.36;100.00;92142.38;6285668;22;20018;-77
2023/10/30 05:28:29;;;;;;;5.65;3.85;;;;;;;10.37;100.00;92141.28;6312097;22;20007;-77
2023/10/30 05:30:56;;;;;;;5.72;4.05;;;;;;;10.36;100.00;92129.28;6313854;22;20003;-78
2023/10/30 05:33:21;;;;;;;8.90;3.97;;;;;;;10.37;100.00;92139.44;6287160;22;20435;-78
2023/10/30 05:35:51;;;;;;;6.85;4.60;;;;;;;10.39;100.00;92131.31;6313460;22;20018;-78
2023/10/30 05:38:17;;;;;;;7.00;4.40;;;;;;;10.39;100.00;92126.06;6315537;22;20046;-78
2023/10/30 05:40:45;;;;;;;8.88;4.22;;;;;;;10.39;100.00;92132.06;6286550;22;20007;-78
2023/10/30 05:43:11;;;;;;;8.88;4.57;;;;;;;10.39;100.00;92123.47;6286353;22;20068;-79
2023/10/30 05:45:37;;;;;;;7.07;4.18;;;;;;;10.36;100.00;92116.19;6314153;22;20011;-78
2023/10/30 05:48:02;;;;;;;8.80;4.30;;;;;;;10.41;100.00;92129.19;6313956;22;20007;-78
2023/10/30 05:50:28;;;;;;;1699.03;43.92;;;;;;;10.47;100.00;92135.88;6312812;22;20011;-78
2023/10/30 05:52:53;;;;;;;1999.90;67.47;;;;;;;10.40;100.00;92122.38;6313231;22;20106;-78
2023/10/30 05:55:19;;;;;;;619.08;19.65;;;;;;;10.37;100.00;92120.34;6313068;22;20012;-79
2023/10/30 05:57:45;;;;;;;889.72;27.55;;;;;;;10.36;100.00;92126.66;6312432;22;20053;-78
2023/10/30 06:00:12;;;;;;;718.03;19.70;;;;;;;10.35;100.00;92130.34;6287816;22;20030;-78
2023/10/30 06:02:38;;;;;;;639.80;18.95;;;;;;;10.30;100.00;92133.84;6286947;22;20090;-78
2023/10/30 06:05:06;;;;;;;188.20;9.38;;;;;;;10.30;100.00;92122.59;6286000;22;20144;-78
2023/10/30 06:07:32;;;;;;;76.13;7.13;;;;;;;10.31;100.00;92118.91;6313782;22;20031;-78
2023/10/30 06:09:58;;;;;;;46.92;6.95;;;;;;;10.30;100.00;92112.91;6314516;22;20045;-79
2023/10/30 06:12:24;;;;;;;29.23;6.40;;;;;;;10.30;100.00;92112.13;6313268;22;20050;-79
2023/10/30 06:14:49;;;;;;;33.90;6.78;;;;;;;10.29;100.00;92106.13;6284790;22;20011;-77
2023/10/30 06:17:15;;;;;;;9.23;5.93;;;;;;;10.31;100.00;92097.97;6284938;22;20026;-77
2023/10/30 06:19:41;;;;;;;9.85;5.72;;;;;;;10.31;100.00;92104.00;6309902;22;20003;-78
2023/10/30 06:22:07;;;;;;;11.25;5.72;;;;;;;10.32;100.00;92110.00;6309951;22;20088;-77
2023/10/30 06:24:32;;;;;;;9.73;6.07;;;;;;;10.33;100.00;92098.47;6306968;22;20023;-78
2023/10/30 06:26:58;;;;;;;10.32;5.65;;;;;;;10.33;100.00;92098.47;6309206;22;20052;-78
2023/10/30 06:29:23;;;;;;;8.27;4.90;;;;;;;10.35;100.00;92089.25;6282566;22;20023;-79
2023/10/30 06:31:49;;;;;;;18.02;5.38;;;;;;;10.35;100.00;92078.00;6311781;22;20034;-78
2023/10/30 06:34:15;;;;;;;8.82;5.70;;;;;;;10.33;100.00;92075.69;6311184;22;20046;-78
2023/10/30 06:36:41;;;;;;;12.60;5.38;;;;;;;10.35;100.00;92072.78;6307228;22;20094;-78
2023/10/30 06:39:07;;;;;;;8.50;5.72;;;;;;;10.37;100.00;92071.41;6256976;22;20003;-76
2023/10/30 06:41:32;;;;;;;10.50;5.22;;;;;;;10.38;100.00;92075.59;6310355;22;20347;-78
2023/10/30 06:43:58;;;;;;;12.55;5.80;;;;;;;10.39;100.00;92084.22;6310873;22;20011;-78
2023/10/30 06:46:24;;;;;;;9.38;5.95;;;;;;;10.37;100.00;92078.50;6310148;22;19999;-78
2023/10/30 06:48:50;;;;;;;8.13;5.30;;;;;;;10.41;100.00;92082.84;6286024;22;20094;-78
2023/10/30 06:51:15;;;;;;;8.60;5.68;;;;;;;10.42;100.00;92083.59;6269016;22;20035;-76
2023/10/30 06:53:41;;;;;;;6.93;4.93;;;;;;;10.43;100.00;92064.25;6320428;22;20025;-77
2023/10/30 06:56:07;;;;;;;8.63;4.90;;;;;;;10.45;100.00;92064.72;6293683;22;20271;-77
2023/10/30 06:58:32;;;;;;;11.07;5.20;;;;;;;10.44;100.00;92080.72;6314758;22;20018;-79
2023/10/30 07:01:02;;;;;;;275.13;10.20;;;;;;;10.45;100.00;92083.03;6232077;22;20015;-78
2023/10/30 07:03:28;;;;;;;762.00;22.75;;;;;;;10.57;100.00;92091.13;6308867;22;20014;-77
2023/10/30 07:05:54;;;;;;;262.15;11.63;;;;;;;10.49;100.00;92098.91;6308742;22;20059;-80
2023/10/30 07:08:20;;;;;;;56.25;6.18;;;;;;;10.48;100.00;92105.22;6310818;22;20011;-79
2023/10/30 07:10:45;;;;;;;7.55;5.13;;;;;;;10.46;100.00;92105.50;6280899;22;20059;-78
2023/10/30 07:13:11;;;;;;;12.05;5.10;;;;;;;10.49;100.00;92110.19;6283708;22;20100;-77
2023/10/30 07:15:36;;;;;;;11.05;5.13;;;;;;;10.49;100.00;92107.56;6311295;22;20448;-77
2023/10/30 07:18:02;;;;;;;38.90;6.28;;;;;;;10.47;100.00;92101.03;6301817;22;20023;-76
2023/10/30 07:20:28;;;;;;;11.38;5.85;;;;;;;10.46;100.00;92092.44;6305283;22;20019;-78
2023/10/30 07:22:53;;;;;;;17.35;5.57;;;;;;;10.45;100.00;92097.94;6278537;22;20408;-78
2023/10/30 07:25:19;;;;;;;9.77;5.13;;;;;;;10.48;100.00;92102.59;6231086;22;20007;-76
2023/10/30 07:27:44;;;;;;;7.93;5.35;;;;;;;10.50;100.00;92093.38;6282618;22;20482;-80
2023/10/30 07:30:11;;;;;;;6.80;4.72;;;;;;;10.50;100.00;92080.31;6308521;22;20017;-77
2023/10/30 07:32:36;;;;;;;11.20;5.10;;;;;;;10.52;100.00;92087.88;6309575;22;20035;-78
2023/10/30 07:35:03;;;;;;;7.57;4.88;;;;;;;10.50;100.00;92090.78;6284681;22;20026;-77
2023/10/30 07:37:29;;;;;;;10.10;5.32;;;;;;;10.56;100.00;92094.03;6310281;22;20011;-78
2023/10/30 07:39:55;;;;;;;9.95;4.90;;;;;;;10.56;100.00;92094.03;6285458;22;20004;-78
2023/10/30 07:42:21;;;;;;;12.45;5.18;;;;;;;10.57;100.00;92093.75;6313840;22;20011;-77
2023/10/30 07:44:47;;;;;;;371.20;12.45;;;;;;;10.60;100.00;92100.25;6311845;22;20011;-77
2023/10/30 07:47:12;;;;;;;240.38;8.90;;;;;;;10.58;100.00;92100.56;6311145;22;20011;-78
2023/10/30 07:49:38;;;;;;;44.25;6.45;;;;;;;10.57;100.00;92095.59;6305372;22;20039;-78
2023/10/30 07:52:03;;;;;;;72.45;6.35;;;;;;;10.57;100.00;92101.59;6280886;22;20015;-78
2023/10/30 07:54:29;;;;;;;27.15;5.25;;;;;;;10.57;100.00;92101.59;6274117;22;20306;-78
2023/10/30 07:56:55;;;;;;;25.30;5.32;;;;;;;10.57;100.00;92093.75;6276844;22;20357;-78
2023/10/30 07:59:20;;;;;;;16.60;5.10;;;;;;;10.59;100.00;92098.72;6303361;22;20019;-77
2023/10/30 08:01:46;;;;;;;8.63;4.68;;;;;;;10.59;100.00;92099.47;6303005;22;20447;-77
2023/10/30 08:04:18;;;;;;;10.20;4.78;;;;;;;10.57;100.00;92106.06;6279117;22;20033;-78
2023/10/30 08:06:44;;;;;;;6.43;4.22;;;;;;;10.59;100.00;92107.31;6257180;22;20007;-78
2023/10/30 08:09:12;;;;;;;6.95;4.25;;;;;;;10.58;100.00;92103.16;6305663;22;20081;-79
2023/10/30 08:11:37;;;;;;;6.65;4.30;;;;;;;10.57;100.00;92099.00;6307254;22;20075;-77
2023/10/30 08:14:03;;;;;;;8.20;4.75;;;;;;;10.57;100.00;92075.44;6305691;22;20039;-77
2023/10/30 08:16:29;;;;;;;7.40;4.93;;;;;;;10.59;100.00;92062.84;6307593;22;20427;-77
2023/10/30 08:18:54;;;;;;;8.48;5.40;;;;;;;10.61;100.00;92070.41;6282713;22;20071;-76
2023/10/30 08:21:20;;;;;;;15.50;5.53;;;;;;;10.63;100.00;92078.72;6281962;22;20086;-77
2023/10/30 08:23:45;;;;;;;8.82;5.88;;;;;;;10.64;100.00;92069.78;6310418;22;20011;-77
2023/10/30 08:34:26;;;;;;;19.92;5.60;;;;;;;10.66;100.00;92045.94;6172697;22;20014;-81
2023/10/30 08:36:52;;;;;;;10.73;5.13;;;;;;;10.59;100.00;92031.41;6238809;22;20356;-81
2023/10/30 08:39:18;;;;;;;10.02;5.00;;;;;;;10.62;100.00;92024.81;6288754;22;20018;-81
2023/10/30 08:41:44;;;;;;;7.57;4.65;;;;;;;10.58;100.00;92019.41;6290151;22;20386;-81
2023/10/30 08:44:27;;;;;;;8.05;4.55;;;;;;;10.65;100.00;92019.00;6290836;22;20015;-81
2023/10/30 08:46:53;;;;;;;6.50;3.97;;;;;;;10.68;100.00;92017.63;6288255;22;20019;-81
2023/10/30 08:49:29;;;;;;;7.25;4.15;;;;;;;10.69;100.00;92006.09;6286150;22;20332;-80
2023/10/30 08:51:55;;;;;;;7.80;3.92;;;;;;;10.68;100.00;91999.31;6313894;22;20076;-82
2023/10/30 08:54:23;;;;;;;9.00;4.22;;;;;;;10.70;100.00;91989.31;6263274;22;20011;-82
2023/10/30 08:56:49;;;;;;;7.43;3.95;;;;;;;10.72;100.00;91981.94;6289072;22;19999;-82
2023/10/30 08:59:15;;;;;;;5.80;3.80;;;;;;;10.73;100.00;91980.84;6314504;22;20080;-82
2023/10/30 09:01:41;;;;;;;5.80;3.40;;;;;;;10.71;100.00;91969.91;6312979;22;20003;-82
2023/10/30 09:04:12;;;;;;;5.25;3.25;;;;;;;10.73;100.00;91955.44;6312114;22;20022;-83
2023/10/30 09:06:37;;;;;;;6.53;3.40;;;;;;;10.74;100.00;91943.13;6288317;22;20077;-81
2023/10/30 09:09:03;;;;;;;5.40;3.28;;;;;;;10.75;100.00;91928.97;6316472;22;20010;-81
2023/10/30 09:11:29;;;;;;;522.80;13.52;;;;;;;10.73;100.00;91905.72;6289541;22;20038;-80
2023/10/30 09:13:57;;;;;;;157.30;6.80;;;;;;;10.71;100.00;91902.63;6315773;22;20003;-81
2023/10/30 09:16:25;;;;;;;32.30;4.97;;;;;;;10.71;100.00;91907.09;6239872;22;20018;-80
2023/10/30 09:18:54;;;;;;;6.30;4.22;;;;;;;10.70;100.00;91895.09;6311512;22;20436;-82
2023/10/30 09:21:20;;;;;;;6.28;3.10;;;;;;;10.70;100.00;91900.31;6261248;22;20007;-81
2023/10/30 09:23:47;;;;;;;12.48;3.53;;;;;;;10.75;100.00;91900.19;6316510;22;20019;-81
2023/10/30 09:26:14;;;;;;;556.15;15.30;;;;;;;10.76;100.00;91889.41;6313409;22;20348;-81
2023/10/30 09:28:40;;;;;;;22.10;3.53;;;;;;;10.74;100.00;91869.81;6311411;22;20034;-77
2023/10/30 09:31:06;;;;;;;8.35;3.03;;;;;;;10.73;100.00;91865.69;6307262;22;20410;-79
2023/10/30 09:33:35;;;;;;;5.70;3.33;;;;;;;10.76;100.00;91871.09;6287007;22;20019;-79
2023/10/30 09:36:01;;;;;;;7.75;3.13;;;;;;;10.77;100.00;91870.00;6289487;22;20372;-80
2023/10/30 09:38:26;;;;;;;502.00;14.65;;;;;;;10.88;100.00;91875.75;6257543;22;20015;-82
2023/10/30 09:41:01;;;;;;;535.88;12.85;;;;;;;10.76;100.00;91878.16;6285997;22;20016;-81
2023/10/30 09:43:30;;;;;;;914.97;21.77;;;;;;;10.61;100.00;91903.66;6283588;22;20007;-80
2023/10/30 09:46:01;;;;;;;524.10;12.98;;;;;;;10.63;100.00;91901.50;6256269;22;20024;-79
2023/10/30 09:48:28;;;;;;;367.63;9.48;;;;;;;10.64;100.00;91881.34;6281846;22;20050;-80
2023/10/30 09:50:56;;;;;;;167.63;4.97;;;;;;;10.58;100.00;91870.25;6253460;22;20079;-79
2023/10/30 09:53:23;;;;;;;3.17;1.50;;;;;;;10.52;100.00;91873.28;6259218;22;20010;-78
2023/10/30 09:55:50;;;;;;;1.77;1.15;;;;;;;10.58;100.00;91877.28;6259466;22;20015;-79
2023/10/30 09:58:16;;;;;;;5.22;1.00;;;;;;;10.56;100.00;91906.41;6260454;22;20041;-79
2023/10/30 10:00:46;;;;;;;7.05;1.35;;;;;;;10.58;100.00;91964.47;6283825;22;20015;-76
2023/10/30 10:03:11;;;;;;;3.33;1.10;;;;;;;10.55;100.00;91996.44;6258150;22;20030;-78
2023/10/30 10:05:38;;;;;;;1.85;0.90;;;;;;;10.54;100.00;91913.78;6285824;22;20544;-78
2023/10/30 10:08:05;;;;;;;0.70;0.70;;;;;;;10.51;100.00;91890.81;6230663;22;20019;-77
2023/10/30 10:11:01;;;;;;;0.70;0.70;;;;;;;10.58;100.00;91919.97;6283418;22;20007;-80
2023/10/30 10:13:32;;;;;;;0.60;0.60;;;;;;;10.55;100.00;91915.31;6244201;22;20012;-79
2023/10/30 10:16:01;;;;;;;2.05;0.55;;;;;;;10.58;100.00;91901.66;6285293;22;20019;-80
2023/10/30 10:18:28;;;;;;;0.50;0.50;;;;;;;10.72;100.00;91906.03;6258730;22;20015;-80
2023/10/30 10:21:13;;;;;;;0.60;0.60;;;;;;;11.03;100.00;91924.31;6286541;22;20038;-80
2023/10/30 10:23:39;;;;;;;0.70;0.70;;;;;;;10.91;100.00;91922.28;6284815;22;20500;-80
2023/10/30 10:26:16;;;;;;;0.70;0.70;;;;;;;10.85;100.00;91915.63;6286644;22;20085;-80
2023/10/30 10:28:44;;;;;;;0.93;0.68;;;;;;;10.81;100.00;91902.38;6285588;22;20012;-81
2023/10/30 10:31:10;;;;;;;0.85;0.73;;;;;;;10.81;100.00;91870.94;6284683;22;20008;-80
2023/10/30 10:33:56;;;;;;;0.70;0.70;;;;;;;10.83;100.00;91852.34;6257231;22;20397;-80
2023/10/30 10:36:34;;;;;;;0.50;0.50;;;;;;;10.82;100.00;91858.63;6283168;22;20058;-81
2023/10/30 10:38:59;;;;;;;0.70;0.70;;;;;;;10.84;100.00;91856.47;6281178;22;20007;-80
2023/10/30 10:41:26;;;;;;;1.92;0.98;;;;;;;10.81;100.00;91844.00;6250672;22;20004;-78
2023/10/30 10:43:53;;;;;;;1.55;1.20;;;;;;;10.76;100.00;91846.75;6277178;22;20015;-81
2023/10/30 10:46:26;;;;;;;1.15;0.90;;;;;;;10.80;100.00;91861.53;6281581;22;20028;-83
2023/10/30 10:48:53;;;;;;;231.35;6.40;;;;;;;10.83;100.00;91865.44;6279119;22;20046;-83
2023/10/30 10:51:46;;;;;;;366.45;9.10;;;;;;;10.73;100.00;91836.88;6279061;22;20007;-82
2023/10/30 10:54:24;;;;;;;2.13;1.30;;;;;;;10.65;100.00;91835.00;6277643;22;20012;-80
2023/10/30 10:56:53;;;;;;;1.05;0.90;;;;;;;10.69;100.00;91851.63;6283508;22;20061;-80
2023/10/30 10:59:25;;;;;;;2.67;1.40;;;;;;;10.62;100.00;91889.47;6285188;22;20007;-81
2023/10/30 11:01:54;;;;;;;2.03;1.10;;;;;;;10.59;100.00;91874.38;6283940;22;20008;-80
2023/10/30 11:04:21;;;;;;;3.05;1.42;;;;;;;10.55;100.00;91862.19;6282136;22;20008;-81
2023/10/30 11:06:54;;;;;;;4.72;2.72;;;;;;;10.55;100.00;91867.44;6286139;22;20015;-81
2023/10/30 11:09:49;;;;;;;1.88;1.33;;;;;;;10.63;100.00;91875.34;6287077;22;20229;-79
2023/10/30 11:12:49;;;;;;;2.83;1.60;;;;;;;10.66;100.00;91849.63;6278689;22;20037;-80
2023/10/30 11:15:25;;;;;;;1.77;1.20;;;;;;;10.65;100.00;91840.22;6217650;22;20460;-80
2023/10/30 11:18:18;;;;;;;2.38;1.20;;;;;;;10.65;100.00;91841.03;6284868;22;20068;-81
2023/10/30 11:20:47;;;;;;;0.88;0.88;;;;;;;10.65;100.00;91827.13;6285085;22;20166;-80
2023/10/30 11:23:33;;;;;;;0.80;0.80;;;;;;;10.72;100.00;91817.03;6258513;22;20012;-81
2023/10/30 11:25:59;;;;;;;4.57;1.00;;;;;;;10.83;100.00;91815.69;6279530;22;20112;-79